Time;durP1;ratioP1;P1;durP2;ratioP2;P2;SDS_P1;SDS_P2;PMS_P1;PMS_P2;Temp;Humidity;BMP_temperature;BMP_pressure;BME280_temperature;BME280_humidity;BME280_pressure;Samples;Min_cycle;Max_cycle;Signal;HPM_P1;HPM_P2
2022/10/03 00:01:29;;;;;;;5.00;4.47;;;;;;;8.65;100.00;97846.66;1634216;86;22346;-74
2022/10/03 00:04:33;;;;;;;4.58;4.17;;;;;;;8.62;100.00;97844.55;1654558;86;21159;-73
2022/10/03 00:07:12;;;;;;;8.15;4.72;;;;;;;8.51;100.00;97841.19;1648158;84;20904;-72
2022/10/03 00:10:09;;;;;;;4.62;4.22;;;;;;;8.72;100.00;97835.08;1642336;84;21457;-72
2022/10/03 00:13:05;;;;;;;4.45;4.05;;;;;;;8.67;100.00;97839.97;1665147;85;21004;-72
2022/10/03 00:16:06;;;;;;;6.70;4.83;;;;;;;8.34;100.00;97827.66;1649886;86;21570;-71
2022/10/03 00:19:23;;;;;;;5.10;4.47;;;;;;;8.59;100.00;97836.55;1658956;86;20912;-72
2022/10/03 00:22:27;;;;;;;4.97;4.58;;;;;;;8.79;100.00;97825.66;1632704;86;21069;-73
2022/10/03 00:25:03;;;;;;;4.70;4.30;;;;;;;8.41;100.00;97818.56;1640661;84;20944;-72
2022/10/03 00:27:54;;;;;;;5.47;4.65;;;;;;;8.51;100.00;97813.90;1653861;86;21162;-71
2022/10/03 00:30:23;;;;;;;3.90;3.60;;;;;;;8.69;100.00;97812.38;1642280;84;21344;-72
2022/10/03 00:33:18;;;;;;;4.60;4.20;;;;;;;8.73;100.00;97815.30;1640468;84;20913;-72
2022/10/03 00:36:09;;;;;;;5.78;4.97;;;;;;;8.70;100.00;97810.52;1638190;85;21553;-73
2022/10/03 00:38:59;;;;;;;4.95;4.55;;;;;;;8.71;100.00;97802.73;1634505;86;21046;-71
2022/10/03 00:41:52;;;;;;;4.95;4.55;;;;;;;8.82;100.00;97800.22;1698048;82;21468;-73
2022/10/03 00:44:46;;;;;;;5.35;4.80;;;;;;;8.80;100.00;97809.06;1678021;84;21269;-70
2022/10/03 00:47:40;;;;;;;6.20;5.67;;;;;;;8.88;100.00;97808.44;1698102;83;20936;-72
2022/10/03 00:50:32;;;;;;;7.75;5.80;;;;;;;8.73;100.00;97799.24;1699539;84;20862;-72
2022/10/03 00:53:14;;;;;;;6.55;5.65;;;;;;;8.43;100.00;97797.14;1700078;84;20918;-74
2022/10/03 00:55:58;;;;;;;5.92;5.33;;;;;;;8.52;100.00;97794.09;1710287;83;21423;-72
2022/10/03 00:58:57;;;;;;;6.05;5.45;;;;;;;8.50;100.00;97790.92;1662564;85;21210;-72
2022/10/03 01:01:45;;;;;;;5.70;4.90;;;;;;;8.51;100.00;97790.38;1662343;85;21040;-72
2022/10/03 01:04:40;;;;;;;7.72;5.90;;;;;;;8.64;100.00;97789.70;1659258;86;21075;-69
2022/10/03 01:07:32;;;;;;;6.70;5.58;;;;;;;8.71;100.00;97786.14;1660437;86;20992;-72
2022/10/03 01:10:21;;;;;;;6.60;6.00;;;;;;;8.78;100.00;97779.91;1667467;85;21521;-73
2022/10/03 01:13:24;;;;;;;9.10;6.30;;;;;;;8.51;100.00;97778.34;1667042;85;21294;-73
2022/10/03 01:16:15;;;;;;;5.85;5.25;;;;;;;8.70;100.00;97783.77;1668123;85;21080;-74
2022/10/03 01:19:23;;;;;;;5.85;4.95;;;;;;;8.90;100.00;97781.40;1669133;85;21007;-72
2022/10/03 01:22:01;;;;;;;6.58;5.25;;;;;;;8.70;100.00;97778.42;1664798;85;21771;-72
2022/10/03 01:24:39;;;;;;;6.00;5.50;;;;;;;8.97;100.00;97779.18;1661548;86;21063;-73
2022/10/03 01:27:09;;;;;;;5.45;4.95;;;;;;;8.70;100.00;97765.05;1659208;86;21173;-72
2022/10/03 01:32:56;;;;;;;6.92;5.75;;;;;;;8.76;100.00;97766.56;1663734;86;21098;-74
2022/10/03 01:35:41;;;;;;;7.22;5.62;;;;;;;8.50;100.00;97764.19;1682148;82;20939;-73
2022/10/03 01:38:35;;;;;;;7.37;5.72;;;;;;;8.88;100.00;97760.27;1673993;84;20999;-75
2022/10/03 01:41:32;;;;;;;7.62;5.58;;;;;;;9.09;100.00;97755.99;1663909;85;21164;-72
2022/10/03 01:44:11;;;;;;;6.28;5.70;;;;;;;8.94;100.00;97754.31;1658951;85;20918;-73
2022/10/03 01:47:07;;;;;;;6.75;6.05;;;;;;;8.90;100.00;97751.97;1666549;85;21482;-72
2022/10/03 01:50:01;;;;;;;6.33;5.75;;;;;;;8.80;100.00;97756.36;1670029;84;21051;-71
2022/10/03 01:52:53;;;;;;;7.35;6.62;;;;;;;8.88;100.00;97755.47;1668304;85;21063;-72
2022/10/03 01:55:31;;;;;;;6.72;6.12;;;;;;;8.87;100.00;97754.68;1672366;85;21271;-69
2022/10/03 01:58:09;;;;;;;7.90;7.10;;;;;;;8.63;100.00;97752.56;1671070;85;20953;-72
2022/10/03 02:00:47;;;;;;;8.48;6.42;;;;;;;8.76;100.00;97745.95;1680346;85;20901;-72
2022/10/03 02:03:31;;;;;;;8.00;7.30;;;;;;;8.89;100.00;97752.52;1648399;85;24354;-70
2022/10/03 02:06:12;;;;;;;9.53;7.00;;;;;;;8.97;100.00;97740.38;1674463;85;21028;-71
2022/10/03 02:09:07;;;;;;;7.53;6.58;;;;;;;9.05;100.00;97733.03;1693917;84;21280;-71
2022/10/03 02:11:39;;;;;;;7.20;6.53;;;;;;;8.94;100.00;97731.56;1693126;84;21221;-70
2022/10/03 02:14:23;;;;;;;7.85;7.05;;;;;;;9.00;100.00;97745.94;1672174;84;20957;-71
2022/10/03 02:17:29;;;;;;;7.10;6.40;;;;;;;8.73;100.00;97754.56;1705325;83;20925;-69
2022/10/03 02:20:02;;;;;;;7.45;6.75;;;;;;;8.51;100.00;97746.27;1692786;83;20957;-72
2022/10/03 02:22:35;;;;;;;9.45;6.90;;;;;;;8.58;100.00;97740.83;1720366;82;21213;-71
2022/10/03 02:25:39;;;;;;;8.13;7.40;;;;;;;8.63;100.00;97741.86;1732681;82;21027;-71
2022/10/03 02:28:36;;;;;;;7.47;6.70;;;;;;;8.64;100.00;97750.13;1705565;82;21024;-72
2022/10/03 02:31:55;;;;;;;7.58;6.65;;;;;;;8.61;100.00;97740.00;1700089;84;20935;-72
2022/10/03 02:34:39;;;;;;;7.97;7.25;;;;;;;8.70;100.00;97736.42;1664416;85;21044;-71
2022/10/03 02:37:28;;;;;;;7.28;6.58;;;;;;;8.80;100.00;97732.28;1658552;86;21304;-71
2022/10/03 02:40:51;;;;;;;6.80;5.92;;;;;;;8.76;100.00;97730.45;1650786;84;20967;-72
2022/10/03 02:43:46;;;;;;;6.00;5.50;;;;;;;8.86;100.00;97728.20;1665714;85;21053;-73
2022/10/03 02:46:42;;;;;;;8.33;5.70;;;;;;;9.10;100.00;97723.59;1664194;85;21008;-72
2022/10/03 02:49:35;;;;;;;6.65;4.80;;;;;;;9.07;100.00;97718.83;1657049;86;21677;-72
2022/10/03 02:52:10;;;;;;;7.70;4.35;;;;;;;9.26;100.00;97718.84;1664305;85;21290;-73
2022/10/03 02:55:15;;;;;;;6.72;4.45;;;;;;;9.56;100.00;97715.45;1665976;85;20991;-74
2022/10/03 02:58:21;;;;;;;5.75;4.80;;;;;;;9.64;100.00;97713.44;1667440;86;20967;-75
2022/10/03 03:01:29;;;;;;;4.92;4.45;;;;;;;10.09;100.00;97713.23;1667735;85;21071;-73
2022/10/03 03:04:21;;;;;;;6.55;4.50;;;;;;;10.45;100.00;97719.84;1667425;86;21007;-73
2022/10/03 03:07:19;;;;;;;5.75;4.80;;;;;;;10.45;100.00;97719.84;1666352;86;22675;-73
2022/10/03 03:09:54;;;;;;;9.68;4.35;;;;;;;10.53;100.00;97710.30;1671409;83;20968;-70
2022/10/03 03:13:00;;;;;;;4.75;3.80;;;;;;;10.61;100.00;97710.97;1702804;83;20916;-71
2022/10/03 03:15:49;;;;;;;5.35;4.05;;;;;;;10.66;100.00;97718.91;1680701;82;20976;-70
2022/10/03 03:18:52;;;;;;;6.67;4.75;;;;;;;10.72;100.00;97719.83;1644682;85;20987;-71
2022/10/03 03:21:35;;;;;;;8.45;4.37;;;;;;;10.73;100.00;97710.70;1652319;86;21425;-70
2022/10/03 03:24:44;;;;;;;6.25;4.20;;;;;;;10.83;100.00;97700.86;1651389;86;21022;-72
2022/10/03 03:27:36;;;;;;;4.65;4.17;;;;;;;10.89;100.00;97705.80;1656242;84;22577;-71
2022/10/03 03:30:11;;;;;;;8.25;4.72;;;;;;;10.89;100.00;97705.80;1663928;84;20955;-70
2022/10/03 03:33:20;;;;;;;9.50;5.00;;;;;;;10.71;100.00;97698.69;1645384;84;21082;-72
2022/10/03 03:36:09;;;;;;;7.22;4.47;;;;;;;10.97;100.00;97698.14;1639072;84;21231;-70
2022/10/03 03:39:30;;;;;;;7.62;4.92;;;;;;;11.00;100.00;97689.48;1661131;85;20876;-74
2022/10/03 03:42:33;;;;;;;5.97;4.05;;;;;;;10.80;100.00;97698.20;1645612;84;21004;-71
2022/10/03 03:45:18;;;;;;;10.08;4.75;;;;;;;10.79;100.00;97693.95;1639861;84;21611;-70
2022/10/03 03:48:13;;;;;;;7.70;4.05;;;;;;;10.92;100.00;97704.41;1651050;85;21027;-71
2022/10/03 03:51:04;;;;;;;7.12;4.47;;;;;;;10.89;100.00;97699.09;1652727;85;21343;-71
2022/10/03 03:54:15;;;;;;;4.50;4.10;;;;;;;10.69;100.00;97700.31;1653032;86;20971;-70
2022/10/03 03:57:06;;;;;;;7.58;4.58;;;;;;;10.55;100.00;97678.61;1685591;82;21013;-68
2022/10/03 03:59:50;;;;;;;6.20;5.03;;;;;;;10.56;100.00;97674.83;1698922;84;21424;-71
2022/10/03 04:02:25;;;;;;;8.90;4.90;;;;;;;10.55;100.00;97703.55;1697868;83;21424;-70
2022/10/03 04:05:27;;;;;;;7.58;4.30;;;;;;;10.55;100.00;97694.16;1700213;84;21501;-70
2022/10/03 04:08:15;;;;;;;8.65;5.10;;;;;;;10.39;100.00;97692.89;1698937;83;20953;-68
2022/10/03 04:10:58;;;;;;;8.75;4.83;;;;;;;10.63;100.00;97672.54;1700231;84;20946;-70
2022/10/03 04:14:15;;;;;;;8.30;4.25;;;;;;;10.71;100.00;97700.03;1699562;83;22286;-71
2022/10/03 04:20:18;;;;;;;6.70;4.50;;;;;;;11.03;100.00;97698.30;1619280;85;21189;-73
2022/10/03 04:23:17;;;;;;;6.12;4.45;;;;;;;11.08;100.00;97694.16;1615078;87;21192;-71
2022/10/03 04:26:06;;;;;;;5.65;4.15;;;;;;;11.02;100.00;97698.03;1615481;88;20995;-72
2022/10/03 04:28:52;;;;;;;6.35;4.20;;;;;;;11.03;100.00;97699.63;1617854;88;20954;-72
2022/10/03 04:31:40;;;;;;;5.97;4.83;;;;;;;11.18;100.00;97699.84;1615726;85;21109;-72
2022/10/03 04:34:38;;;;;;;;;;;;;;;10.84;100.00;97697.86;1610772;88;21288;-70
2022/10/03 04:37:17;;;;;;;7.67;5.03;;;;;;;10.73;100.00;97695.95;1610332;88;20154;-70
2022/10/03 04:39:58;;;;;;;6.58;4.28;;;;;;;10.82;100.00;97695.23;1608374;87;21036;-70
2022/10/03 04:43:05;;;;;;;6.92;3.87;;;;;;;10.97;100.00;97687.41;1607131;87;21000;-73
2022/10/03 04:45:58;;;;;;;4.97;3.95;;;;;;;11.01;100.00;97685.72;1585933;90;21016;-74
2022/10/03 04:48:54;;;;;;;7.22;3.87;;;;;;;10.53;100.00;97684.27;1586355;90;21841;-72
2022/10/03 04:51:54;;;;;;;8.25;4.03;;;;;;;10.60;100.00;97688.69;1585861;88;21740;-71
2022/10/03 04:54:32;;;;;;;4.92;3.95;;;;;;;10.84;100.00;97675.61;1642000;86;21024;-71
2022/10/03 04:57:27;;;;;;;6.72;3.77;;;;;;;10.95;100.00;97701.14;1645277;87;20963;-70
2022/10/03 05:00:28;;;;;;;8.05;4.03;;;;;;;11.07;100.00;97704.63;1646448;86;20984;-72
2022/10/03 05:03:20;;;;;;;5.12;3.22;;;;;;;11.08;100.00;97708.36;1642340;86;21317;-72
2022/10/03 05:06:01;;;;;;;5.58;3.87;;;;;;;11.18;100.00;97706.56;1636098;86;20983;-71
2022/10/03 05:08:58;;;;;;;4.42;3.20;;;;;;;11.21;100.00;97712.11;1648108;86;20878;-72
2022/10/03 05:11:49;;;;;;;6.33;3.67;;;;;;;11.20;100.00;97710.53;1606149;87;21061;-71
2022/10/03 05:14:27;;;;;;;5.05;3.37;;;;;;;11.23;100.00;97712.61;1625483;87;20964;-71
2022/10/03 05:17:22;;;;;;;5.85;3.77;;;;;;;11.31;100.00;97714.56;1633324;87;21168;-72
2022/10/03 05:20:11;;;;;;;9.35;3.77;;;;;;;11.28;100.00;97713.83;1604980;87;20951;-72
2022/10/03 05:23:08;;;;;;;4.30;3.30;;;;;;;11.12;100.00;97705.86;1617946;88;21009;-72
2022/10/03 05:26:11;;;;;;;9.00;3.30;;;;;;;11.15;100.00;97711.98;1611640;87;21102;-73
2022/10/03 05:29:00;;;;;;;4.42;3.12;;;;;;;10.99;100.00;97710.16;1616970;87;21029;-74
2022/10/03 05:32:00;;;;;;;5.20;3.58;;;;;;;10.96;100.00;97709.98;1617330;87;21174;-72
2022/10/03 05:35:05;;;;;;;5.72;2.90;;;;;;;11.16;100.00;97704.17;1623522;88;21486;-70
2022/10/03 05:38:00;;;;;;;4.47;3.20;;;;;;;11.21;100.00;97701.36;1623557;87;21073;-70
2022/10/03 05:40:32;;;;;;;6.80;3.30;;;;;;;11.25;100.00;97725.73;1613768;87;20981;-73
2022/10/03 05:43:48;;;;;;;5.85;3.52;;;;;;;11.21;100.00;97722.84;1603300;88;21012;-72
2022/10/03 05:46:36;;;;;;;7.75;3.20;;;;;;;11.41;100.00;97729.65;1565714;91;21611;-71
2022/10/03 05:49:32;;;;;;;7.43;3.70;;;;;;;11.18;100.00;97689.11;1652324;84;21334;-69
2022/10/03 05:52:20;;;;;;;6.15;3.42;;;;;;;11.22;100.00;97731.69;1661977;86;21125;-73
2022/10/03 05:55:19;;;;;;;8.00;4.20;;;;;;;11.23;100.00;97727.93;1660850;84;20973;-71
2022/10/03 05:58:27;;;;;;;4.22;3.30;;;;;;;11.24;100.00;97730.84;1661107;86;20966;-72
2022/10/03 06:01:14;;;;;;;7.37;3.40;;;;;;;11.30;100.00;97726.41;1665834;85;22366;-72
2022/10/03 06:04:14;;;;;;;6.45;3.00;;;;;;;11.27;100.00;97728.37;1666350;86;20945;-74
2022/10/03 06:07:23;;;;;;;3.75;3.27;;;;;;;11.46;100.00;97730.88;1668408;82;21006;-72
2022/10/03 06:10:13;;;;;;;4.58;2.77;;;;;;;11.53;100.00;97733.15;1730309;82;20900;-73
2022/10/03 06:12:57;;;;;;;5.47;3.20;;;;;;;11.62;100.00;97726.52;1777334;79;20888;-75
2022/10/03 06:15:55;;;;;;;10.43;4.03;;;;;;;11.47;100.00;97733.83;1719128;83;21294;-72
2022/10/03 06:18:33;;;;;;;6.05;3.35;;;;;;;11.49;100.00;97722.23;1757793;80;20905;-74
2022/10/03 06:21:15;;;;;;;6.87;3.80;;;;;;;11.56;100.00;97727.16;1707181;82;21443;-73
2022/10/03 06:24:38;;;;;;;8.83;3.65;;;;;;;11.52;100.00;97714.90;1757648;81;20913;-72
2022/10/03 06:27:43;;;;;;;7.70;3.67;;;;;;;11.67;100.00;97731.21;1724155;82;20908;-74
2022/10/03 06:30:15;;;;;;;9.18;3.85;;;;;;;11.87;100.00;97729.16;1724813;82;21234;-69
2022/10/03 06:33:33;;;;;;;5.75;3.70;;;;;;;12.09;100.00;97713.00;1719636;83;20992;-70
2022/10/03 06:36:33;;;;;;;3.95;3.27;;;;;;;12.25;100.00;97717.97;1757737;80;20881;-72
2022/10/03 06:39:35;;;;;;;5.95;3.85;;;;;;;12.34;100.00;97734.95;1721112;82;20924;-70
2022/10/03 06:42:41;;;;;;;9.15;4.10;;;;;;;12.33;100.00;97722.63;1721380;82;20880;-68
2022/10/03 06:45:55;;;;;;;9.03;3.67;;;;;;;12.36;100.00;97734.89;1764832;79;21325;-72
2022/10/03 06:48:47;;;;;;;6.60;3.60;;;;;;;12.17;100.00;97745.08;1718404;83;20893;-72
2022/10/03 06:51:47;;;;;;;5.85;3.42;;;;;;;12.32;100.00;97733.12;1723266;82;21541;-73
2022/10/03 06:55:03;;;;;;;6.00;3.58;;;;;;;12.39;100.00;97744.23;1764496;79;21540;-72
2022/10/03 06:58:19;;;;;;;5.87;3.42;;;;;;;12.45;100.00;97752.44;1724966;82;20892;-66
2022/10/03 07:01:14;;;;;;;5.85;3.60;;;;;;;12.54;100.00;97746.55;1766391;79;21134;-71
2022/10/03 07:03:52;;;;;;;9.43;3.50;;;;;;;12.70;100.00;97749.59;1759297;81;20869;-69
2022/10/03 07:06:50;;;;;;;6.92;4.05;;;;;;;12.69;100.00;97729.71;1778362;79;20828;-69
2022/10/03 07:09:36;;;;;;;;;;;;;;;12.67;100.00;97753.48;1716879;82;21063;-74
2022/10/03 07:12:35;;;;;;;5.35;3.58;;;;;;;12.65;100.00;97750.53;1710921;83;20109;-72
2022/10/03 07:15:27;;;;;;;10.80;3.40;;;;;;;12.42;100.00;97744.95;1709391;83;21818;-71
2022/10/03 07:18:19;;;;;;;4.25;3.10;;;;;;;12.58;100.00;97739.41;1729249;82;21042;-73
2022/10/03 07:21:30;;;;;;;7.42;3.37;;;;;;;12.64;100.00;97734.15;1727251;82;20935;-74
2022/10/03 07:24:05;;;;;;;5.08;3.00;;;;;;;12.49;100.00;97753.37;1725676;82;20999;-70
2022/10/03 07:27:07;;;;;;;5.53;3.25;;;;;;;12.50;100.00;97743.44;1728347;82;20890;-73
2022/10/03 07:29:57;;;;;;;4.28;3.15;;;;;;;12.48;100.00;97738.91;1728517;83;21231;-72
2022/10/03 07:33:19;;;;;;;7.97;3.42;;;;;;;12.63;100.00;97738.48;1728660;83;21059;-72
2022/10/03 07:39:36;;;;;;;4.17;3.20;;;;;;;12.98;100.00;97739.93;1728666;82;20868;-73
2022/10/03 07:42:26;;;;;;;7.17;3.08;;;;;;;12.70;100.00;97739.39;1728673;83;20932;-71
2022/10/03 07:45:44;;;;;;;8.13;3.55;;;;;;;12.14;100.00;97743.01;1732219;81;21300;-70
2022/10/03 07:48:48;;;;;;;6.30;3.40;;;;;;;12.01;100.00;97748.71;1760468;81;21445;-72
2022/10/03 07:51:39;;;;;;;4.17;2.72;;;;;;;12.04;100.00;97733.30;1735047;81;20896;-66
2022/10/03 07:54:23;;;;;;;5.37;2.60;;;;;;;12.16;100.00;97722.77;1760814;81;21668;-73
2022/10/03 07:57:13;;;;;;;7.15;3.10;;;;;;;12.37;100.00;97749.12;1757832;79;20992;-69
2022/10/03 08:00:21;;;;;;;3.40;2.60;;;;;;;12.37;100.00;97753.98;1719092;83;21195;-74
2022/10/03 08:03:13;;;;;;;5.42;3.15;;;;;;;12.50;100.00;97737.49;1719102;82;21578;-70
2022/10/03 08:05:54;;;;;;;4.70;2.60;;;;;;;12.58;100.00;97752.09;1661557;85;20912;-69
2022/10/03 08:08:53;;;;;;;6.00;2.90;;;;;;;12.53;100.00;97759.73;1666336;85;21441;-72
2022/10/03 08:11:35;;;;;;;6.35;2.95;;;;;;;13.03;100.00;97754.06;1663693;85;20964;-72
2022/10/03 08:14:31;;;;;;;4.40;2.77;;;;;;;13.77;100.00;97751.06;1663502;85;21478;-74
2022/10/03 08:17:39;;;;;;;5.40;3.15;;;;;;;14.20;100.00;97743.44;1669341;85;21557;-70
2022/10/03 08:20:46;;;;;;;6.25;2.60;;;;;;;13.84;100.00;97743.81;1668317;85;21007;-73
2022/10/03 08:23:40;;;;;;;4.10;2.35;;;;;;;13.72;100.00;97754.70;1671573;85;21168;-75
2022/10/03 08:26:32;;;;;;;5.50;2.52;;;;;;;13.73;100.00;97755.49;1671262;85;21003;-73
2022/10/03 08:29:33;;;;;;;7.33;2.90;;;;;;;13.56;100.00;97745.50;1668615;85;21491;-74
2022/10/03 08:32:44;;;;;;;4.35;2.58;;;;;;;13.33;100.00;97756.99;1661841;85;21454;-76
2022/10/03 08:35:28;;;;;;;7.97;3.30;;;;;;;13.64;100.00;97719.09;1707438;83;21458;-73
2022/10/03 08:38:32;;;;;;;4.45;2.60;;;;;;;13.68;100.00;97759.70;1711706;83;20944;-74
2022/10/03 08:41:53;;;;;;;4.47;2.75;;;;;;;13.61;100.00;97759.38;1711183;83;20929;-67
2022/10/03 08:45:02;;;;;;;3.80;2.70;;;;;;;13.48;100.00;97759.78;1729135;82;21885;-72
2022/10/03 08:47:50;;;;;;;6.37;2.40;;;;;;;13.76;100.00;97735.98;1765223;81;20876;-72
2022/10/03 08:50:44;;;;;;;3.45;2.75;;;;;;;14.19;100.00;97762.66;1721230;81;20919;-69
2022/10/03 08:53:52;;;;;;;4.75;2.90;;;;;;;14.30;100.00;97769.29;1731287;82;20882;-70
2022/10/03 08:56:47;;;;;;;;;;;;;;;14.13;100.00;97751.23;1715787;82;22097;-74
2022/10/03 08:59:49;;;;;;;3.65;2.42;;;;;;;13.76;100.00;97760.24;1712735;83;21795;-73
2022/10/03 09:03:04;;;;;;;6.22;2.45;;;;;;;14.07;100.00;97767.36;1713474;83;20980;-76
2022/10/03 09:06:07;;;;;;;6.05;2.40;;;;;;;14.17;100.00;97779.73;1709934;83;20859;-74
2022/10/03 09:08:46;;;;;;;4.62;2.40;;;;;;;14.13;100.00;97774.98;1716944;82;20862;-73
2022/10/03 09:11:53;;;;;;;3.15;2.45;;;;;;;14.14;100.00;97758.23;1716972;82;20939;-76
2022/10/03 09:14:43;;;;;;;3.17;2.30;;;;;;;14.15;100.00;97761.94;1724454;82;21127;-72
2022/10/03 09:17:50;;;;;;;4.45;2.47;;;;;;;14.27;100.00;97768.03;1721216;82;20887;-70
2022/10/03 09:20:30;;;;;;;3.17;2.25;;;;;;;14.13;100.00;97782.25;1703912;82;20978;-72
2022/10/03 09:23:24;;;;;;;6.25;2.65;;;;;;;14.04;100.00;97781.50;1716613;82;20930;-74
2022/10/03 09:26:43;;;;;;;5.30;2.67;;;;;;;14.03;100.00;97771.23;1723572;82;20926;-75
2022/10/03 09:29:33;;;;;;;4.33;2.47;;;;;;;14.22;100.00;97774.95;1765678;79;21191;-74
2022/10/03 09:32:26;;;;;;;3.22;2.65;;;;;;;14.69;100.00;97772.28;1757922;81;21391;-76
2022/10/03 09:35:46;;;;;;;4.85;2.47;;;;;;;14.55;100.00;97768.47;1757593;81;20873;-71
2022/10/03 09:38:59;;;;;;;6.37;2.72;;;;;;;14.43;100.00;97751.30;1768307;79;20880;-73
2022/10/03 09:41:43;;;;;;;3.62;2.20;;;;;;;14.21;100.00;97790.09;1768512;79;20877;-73
2022/10/03 09:44:25;;;;;;;3.80;2.40;;;;;;;14.21;100.00;97774.72;1774439;79;21150;-66
2022/10/03 09:47:28;;;;;;;2.35;2.10;;;;;;;13.99;100.00;97773.55;1769884;79;20880;-73
2022/10/03 09:50:45;;;;;;;3.40;2.33;;;;;;;13.78;100.00;97786.34;1759122;81;20943;-70
2022/10/03 09:53:49;;;;;;;2.22;1.90;;;;;;;13.34;100.00;97780.69;1757548;81;21435;-75
2022/10/03 09:56:36;;;;;;;4.47;2.17;;;;;;;13.28;100.00;97773.31;1779632;79;20940;-71
2022/10/03 09:59:23;;;;;;;5.65;2.20;;;;;;;13.65;100.00;97771.91;1757658;81;21152;-71
2022/10/03 10:02:33;;;;;;;7.12;2.83;;;;;;;13.54;100.00;97784.66;1759105;81;20872;-73
2022/10/03 10:05:10;;;;;;;5.30;2.42;;;;;;;13.66;100.00;97779.44;1757228;81;21424;-73
2022/10/03 10:08:14;;;;;;;7.95;3.55;;;;;;;13.50;100.00;97765.66;1780790;79;20928;-72
2022/10/03 10:11:00;;;;;;;7.17;2.83;;;;;;;13.48;100.00;97759.22;1780847;79;21105;-72
2022/10/03 10:13:50;;;;;;;4.65;2.52;;;;;;;13.50;100.00;97785.30;1768502;80;21249;-74
2022/10/03 10:16:50;;;;;;;8.65;2.67;;;;;;;13.27;100.00;97783.27;1784776;79;20972;-74
2022/10/03 10:20:03;;;;;;;5.15;2.83;;;;;;;13.03;100.00;97775.61;1779014;80;20956;-72
2022/10/03 10:22:46;;;;;;;6.58;2.87;;;;;;;13.37;100.00;97782.19;1760465;79;20893;-75
2022/10/03 10:25:41;;;;;;;7.67;2.80;;;;;;;13.22;100.00;97771.83;1760659;80;20897;-76
2022/10/03 10:28:46;;;;;;;3.92;2.35;;;;;;;13.36;100.00;97776.56;1698164;84;21279;-76
2022/10/03 10:31:51;;;;;;;4.33;2.83;;;;;;;13.34;100.00;97768.56;1698505;84;21532;-71
2022/10/03 10:35:09;;;;;;;3.47;2.55;;;;;;;13.37;100.00;97772.75;1698386;84;20864;-68
2022/10/03 10:37:56;;;;;;;6.33;2.90;;;;;;;13.45;100.00;97752.33;1698540;84;20992;-70
2022/10/03 10:41:00;;;;;;;4.15;2.72;;;;;;;13.57;100.00;97771.90;1698257;84;21011;-73
2022/10/03 10:43:51;;;;;;;4.80;2.80;;;;;;;13.72;100.00;97778.97;1698163;84;21179;-70
2022/10/03 10:47:12;;;;;;;8.20;3.15;;;;;;;13.54;100.00;97775.23;1698209;84;20905;-71
2022/10/03 10:49:56;;;;;;;7.90;2.87;;;;;;;13.56;100.00;97775.72;1698380;84;20995;-73
2022/10/03 10:53:11;;;;;;;5.72;3.15;;;;;;;13.62;100.00;97770.39;1697424;84;20923;-71
2022/10/03 10:56:03;;;;;;;4.12;2.80;;;;;;;13.60;100.00;97763.20;1699085;84;21013;-75
2022/10/03 10:59:02;;;;;;;5.90;2.85;;;;;;;13.84;100.00;97791.82;1744556;81;21446;-77
2022/10/03 11:01:58;;;;;;;6.92;2.72;;;;;;;13.48;100.00;97786.17;1758087;81;20912;-72
2022/10/03 11:05:15;;;;;;;11.00;2.75;;;;;;;13.62;100.00;97765.81;1768782;79;20979;-76
2022/10/03 11:08:06;;;;;;;;;;;;;;;13.93;100.00;97775.62;1796229;79;20836;-69
2022/10/03 11:11:05;;;;;;;11.00;2.75;;;;;;;14.10;100.00;97751.31;1775800;79;20422;-68
2022/10/03 11:13:59;;;;;;;4.22;2.20;;;;;;;14.34;100.00;97764.84;1772792;79;21086;-73
2022/10/03 11:17:03;;;;;;;5.00;2.65;;;;;;;14.12;100.00;97775.29;1745254;81;20949;-73
2022/10/03 11:19:56;;;;;;;3.75;2.20;;;;;;;14.05;100.00;97773.63;1660540;84;20977;-68
2022/10/03 11:22:51;;;;;;;6.67;2.95;;;;;;;13.70;100.00;97788.48;1669079;84;20891;-71
2022/10/03 11:25:39;;;;;;;4.03;2.52;;;;;;;13.52;100.00;97791.70;1679870;84;20979;-70
2022/10/03 11:28:45;;;;;;;5.55;2.85;;;;;;;13.44;100.00;97785.77;1663717;84;21048;-70
2022/10/03 11:31:59;;;;;;;4.85;2.42;;;;;;;13.40;100.00;97770.80;1749304;81;20877;-69
2022/10/03 11:34:56;;;;;;;4.22;2.50;;;;;;;13.38;100.00;97759.53;1742054;82;21534;-75
2022/10/03 11:37:47;;;;;;;3.47;2.20;;;;;;;13.29;100.00;97774.89;1741590;82;20949;-73
2022/10/03 11:40:45;;;;;;;4.75;2.67;;;;;;;13.32;100.00;97777.50;1740982;82;21163;-74
2022/10/03 11:43:37;;;;;;;;;;;;;;;13.31;100.00;97769.98;1748245;81;21301;-73
2022/10/03 11:46:36;;;;;;;4.00;2.55;;;;;;;13.35;100.00;97768.25;1744504;81;20154;-73
2022/10/03 11:49:44;;;;;;;7.67;2.90;;;;;;;13.40;100.00;97770.80;1742719;81;20854;-72
2022/10/03 11:52:46;;;;;;;7.90;3.25;;;;;;;13.40;100.00;97765.41;1744207;81;20896;-73
2022/10/03 11:55:43;;;;;;;5.22;2.70;;;;;;;13.20;100.00;97778.87;1770813;79;21408;-73
2022/10/03 11:58:35;;;;;;;3.50;2.60;;;;;;;13.08;100.00;97771.42;1779008;79;21269;-73
2022/10/03 12:01:19;;;;;;;9.15;3.20;;;;;;;13.02;100.00;97786.68;1765793;79;20869;-72
2022/10/03 12:04:16;;;;;;;5.92;2.67;;;;;;;13.01;100.00;97760.31;1763914;79;21466;-71
2022/10/03 12:10:19;;;;;;;3.87;2.80;;;;;;;13.20;100.00;97768.09;1757836;81;21471;-69
2022/10/03 12:12:51;;;;;;;7.58;3.37;;;;;;;13.27;100.00;97754.98;1757486;81;21239;-70
2022/10/03 12:15:29;;;;;;;5.33;2.72;;;;;;;13.40;100.00;97764.05;1757650;81;20916;-74
2022/10/03 12:18:22;;;;;;;5.12;2.70;;;;;;;13.55;100.00;97772.23;1757541;81;21088;-72
2022/10/03 12:21:06;;;;;;;5.62;2.70;;;;;;;13.43;100.00;97775.55;1757474;81;20870;-75
2022/10/03 12:23:58;;;;;;;4.30;2.62;;;;;;;13.47;100.00;97769.77;1756724;81;20900;-74
2022/10/03 12:26:48;;;;;;;8.85;2.67;;;;;;;13.38;100.00;97768.17;1764643;79;21069;-76
2022/10/03 12:29:16;;;;;;;4.33;2.80;;;;;;;13.45;100.00;97759.86;1773071;79;21000;-76
2022/10/03 12:32:04;;;;;;;4.87;2.70;;;;;;;13.50;100.00;97779.91;1718617;83;21445;-74
2022/10/03 12:34:42;;;;;;;2.95;2.65;;;;;;;13.45;100.00;97772.55;1763424;79;21176;-73
2022/10/03 12:37:43;;;;;;;4.97;2.62;;;;;;;13.72;100.00;97774.93;1788431;79;20833;-74
2022/10/03 12:40:32;;;;;;;2.47;2.27;;;;;;;14.03;100.00;97789.34;1764920;80;21379;-71
2022/10/03 12:43:41;;;;;;;2.70;2.50;;;;;;;13.68;100.00;97769.14;1764814;79;20908;-74
2022/10/03 12:46:38;;;;;;;2.85;2.33;;;;;;;13.25;100.00;97737.52;1757684;81;20917;-74
2022/10/03 12:49:30;;;;;;;3.62;2.25;;;;;;;13.33;100.00;97766.95;1765496;79;21530;-75
2022/10/03 12:52:01;;;;;;;2.60;2.33;;;;;;;13.25;100.00;97757.20;1763427;79;20983;-68
2022/10/03 12:54:56;;;;;;;3.83;2.30;;;;;;;13.16;100.00;97759.08;1757723;81;21253;-71
2022/10/03 12:57:49;;;;;;;4.70;2.80;;;;;;;13.21;100.00;97759.48;1772787;79;21396;-69
2022/10/03 13:00:35;;;;;;;5.05;3.12;;;;;;;13.51;100.00;97764.53;1768059;79;20927;-71
2022/10/03 13:03:24;;;;;;;2.50;2.27;;;;;;;13.46;100.00;97760.09;1769306;80;20849;-72
2022/10/03 13:06:14;;;;;;;6.95;2.60;;;;;;;13.50;100.00;97754.31;1718686;83;20905;-69
2022/10/03 13:09:20;;;;;;;3.85;3.08;;;;;;;13.65;100.00;97754.39;1670845;83;21143;-74
2022/10/03 13:12:18;;;;;;;5.85;3.00;;;;;;;13.58;100.00;97759.46;1672304;83;20915;-72
2022/10/03 13:15:15;;;;;;;6.17;2.85;;;;;;;13.62;100.00;97748.30;1668137;84;21437;-73
2022/10/03 13:18:05;;;;;;;5.08;3.05;;;;;;;13.49;100.00;97746.53;1673557;84;20944;-71
2022/10/03 13:20:41;;;;;;;12.95;3.35;;;;;;;13.48;100.00;97750.34;1672717;83;20951;-71
2022/10/03 13:23:46;;;;;;;6.58;3.47;;;;;;;13.35;100.00;97747.23;1673872;83;21177;-74
2022/10/03 13:26:30;;;;;;;8.50;3.47;;;;;;;13.36;100.00;97743.44;1671700;85;20947;-71
2022/10/03 13:29:42;;;;;;;3.50;2.98;;;;;;;13.41;100.00;97750.02;1613464;88;21007;-72
2022/10/03 13:32:41;;;;;;;3.47;3.17;;;;;;;13.35;100.00;97735.92;1607802;88;20959;-72
2022/10/03 13:38:25;;;;;;;3.87;3.08;;;;;;;13.35;100.00;97717.59;1621672;88;21294;-71
2022/10/03 13:41:33;;;;;;;7.08;3.12;;;;;;;13.46;100.00;97722.35;1619618;88;20839;-75
2022/10/03 13:44:11;;;;;;;2.98;2.67;;;;;;;13.52;100.00;97732.41;1620815;88;20907;-73
2022/10/03 13:46:47;;;;;;;4.30;3.58;;;;;;;13.57;100.00;97727.42;1616438;88;20954;-72
2022/10/03 13:49:30;;;;;;;4.92;3.40;;;;;;;13.59;100.00;97720.59;1635493;87;21129;-72
2022/10/03 13:52:09;;;;;;;5.05;3.45;;;;;;;13.62;100.00;97717.82;1613622;88;21844;-72